sensor_id;sensor_type;location;lat;lon;timestamp;P1;durP1;ratioP1;P2;durP2;ratioP2
5678;SDS011;2862;52.560;13.566;2022-12-07T00:00:23;33.77;;;11.00;;
5678;SDS011;2862;52.560;13.566;2022-12-07T00:10:28;29.87;;;9.10;;
5678;SDS011;2862;52.560;13.566;2022-12-07T00:20:31;29.03;;;8.10;;
5678;SDS011;2862;52.560;13.566;2022-12-07T00:30:35;27.23;;;8.77;;
5678;SDS011;2862;52.560;13.566;2022-12-07T00:40:38;27.57;;;8.40;;
5678;SDS011;2862;52.560;13.566;2022-12-07T00:50:43;25.37;;;8.17;;
5678;SDS011;2862;52.560;13.566;2022-12-07T01:00:47;26.23;;;7.63;;
5678;SDS011;2862;52.560;13.566;2022-12-07T01:10:56;26.73;;;7.73;;
5678;SDS011;2862;52.560;13.566;2022-12-07T01:21:01;26.00;;;8.03;;
5678;SDS011;2862;52.560;13.566;2022-12-07T01:31:08;27.37;;;7.60;;
5678;SDS011;2862;52.560;13.566;2022-12-07T01:41:13;27.30;;;8.70;;
5678;SDS011;2862;52.560;13.566;2022-12-07T01:51:18;25.23;;;7.17;;
5678;SDS011;2862;52.560;13.566;2022-12-07T02:01:21;24.63;;;7.77;;
5678;SDS011;2862;52.560;13.566;2022-12-07T02:11:25;23.00;;;6.93;;
5678;SDS011;2862;52.560;13.566;2022-12-07T02:21:34;21.23;;;6.43;;
5678;SDS011;2862;52.560;13.566;2022-12-07T02:31:49;20.47;;;5.83;;
5678;SDS011;2862;52.560;13.566;2022-12-07T02:42:00;30.57;;;5.90;;
5678;SDS011;2862;52.560;13.566;2022-12-07T02:52:11;20.87;;;3.83;;
5678;SDS011;2862;52.560;13.566;2022-12-07T03:02:16;20.50;;;4.90;;
5678;SDS011;2862;52.560;13.566;2022-12-07T03:12:29;23.80;;;6.70;;
5678;SDS011;2862;52.560;13.566;2022-12-07T03:22:38;22.23;;;5.00;;
5678;SDS011;2862;52.560;13.566;2022-12-07T03:32:47;20.80;;;5.80;;
5678;SDS011;2862;52.560;13.566;2022-12-07T03:42:54;24.40;;;7.43;;
5678;SDS011;2862;52.560;13.566;2022-12-07T03:53:04;24.53;;;8.00;;
5678;SDS011;2862;52.560;13.566;2022-12-07T04:03:13;22.67;;;7.27;;
5678;SDS011;2862;52.560;13.566;2022-12-07T04:13:18;25.40;;;7.53;;
5678;SDS011;2862;52.560;13.566;2022-12-07T04:23:21;26.10;;;8.50;;
5678;SDS011;2862;52.560;13.566;2022-12-07T04:33:26;33.30;;;9.40;;
5678;SDS011;2862;52.560;13.566;2022-12-07T04:43:29;32.33;;;10.20;;
5678;SDS011;2862;52.560;13.566;2022-12-07T04:53:34;31.30;;;9.30;;
5678;SDS011;2862;52.560;13.566;2022-12-07T05:03:37;38.90;;;13.17;;
5678;SDS011;2862;52.560;13.566;2022-12-07T05:13:42;37.80;;;12.60;;
5678;SDS011;2862;52.560;13.566;2022-12-07T05:23:45;37.07;;;12.93;;
5678;SDS011;2862;52.560;13.566;2022-12-07T05:33:50;37.53;;;13.57;;
5678;SDS011;2862;52.560;13.566;2022-12-07T05:43:53;40.77;;;14.87;;
5678;SDS011;2862;52.560;13.566;2022-12-07T05:53:57;44.37;;;15.57;;
5678;SDS011;2862;52.560;13.566;2022-12-07T06:04:00;59.37;;;19.93;;
5678;SDS011;2862;52.560;13.566;2022-12-07T06:14:04;59.20;;;19.80;;
5678;SDS011;2862;52.560;13.566;2022-12-07T06:24:08;64.03;;;20.00;;
5678;SDS011;2862;52.560;13.566;2022-12-07T06:34:15;56.90;;;19.30;;
5678;SDS011;2862;52.560;13.566;2022-12-07T06:44:20;67.77;;;26.53;;
5678;SDS011;2862;52.560;13.566;2022-12-07T06:54:25;50.50;;;19.70;;
5678;SDS011;2862;52.560;13.566;2022-12-07T07:04:29;50.47;;;19.70;;
5678;SDS011;2862;52.560;13.566;2022-12-07T07:14:34;43.57;;;15.23;;
5678;SDS011;2862;52.560;13.566;2022-12-07T07:24:38;44.00;;;17.20;;
5678;SDS011;2862;52.560;13.566;2022-12-07T07:34:42;48.20;;;15.30;;
5678;SDS011;2862;52.560;13.566;2022-12-07T07:44:45;44.90;;;16.97;;
5678;SDS011;2862;52.560;13.566;2022-12-07T07:54:49;48.57;;;13.97;;
5678;SDS011;2862;52.560;13.566;2022-12-07T08:04:52;45.20;;;11.03;;
5678;SDS011;2862;52.560;13.566;2022-12-07T08:14:56;29.33;;;9.07;;
5678;SDS011;2862;52.560;13.566;2022-12-07T08:24:59;28.50;;;8.10;;
5678;SDS011;2862;52.560;13.566;2022-12-07T08:35:04;22.50;;;6.63;;
5678;SDS011;2862;52.560;13.566;2022-12-07T08:45:08;22.40;;;6.10;;
5678;SDS011;2862;52.560;13.566;2022-12-07T08:55:13;17.00;;;4.10;;
5678;SDS011;2862;52.560;13.566;2022-12-07T09:05:16;16.83;;;3.23;;
5678;SDS011;2862;52.560;13.566;2022-12-07T09:15:21;16.90;;;3.10;;
5678;SDS011;2862;52.560;13.566;2022-12-07T09:25:24;13.90;;;1.80;;
5678;SDS011;2862;52.560;13.566;2022-12-07T09:35:29;14.77;;;2.13;;
5678;SDS011;2862;52.560;13.566;2022-12-07T09:45:32;18.40;;;2.40;;
5678;SDS011;2862;52.560;13.566;2022-12-07T09:55:39;12.33;;;1.00;;
5678;SDS011;2862;52.560;13.566;2022-12-07T10:05:44;14.80;;;2.70;;
5678;SDS011;2862;52.560;13.566;2022-12-07T10:15:52;12.07;;;0.87;;
5678;SDS011;2862;52.560;13.566;2022-12-07T10:25:56;11.80;;;1.00;;
5678;SDS011;2862;52.560;13.566;2022-12-07T10:36:00;13.07;;;1.10;;
5678;SDS011;2862;52.560;13.566;2022-12-07T10:46:37;13.20;;;1.17;;
5678;SDS011;2862;52.560;13.566;2022-12-07T11:07:33;14.30;;;0.73;;
5678;SDS011;2862;52.560;13.566;2022-12-07T11:17:48;25.23;;;5.23;;
5678;SDS011;2862;52.560;13.566;2022-12-07T11:28:02;17.30;;;3.63;;
5678;SDS011;2862;52.560;13.566;2022-12-07T11:38:20;13.40;;;1.83;;
5678;SDS011;2862;52.560;13.566;2022-12-07T11:48:32;14.60;;;1.70;;
5678;SDS011;2862;52.560;13.566;2022-12-07T11:58:42;22.93;;;4.93;;
5678;SDS011;2862;52.560;13.566;2022-12-07T12:08:53;16.80;;;2.00;;
5678;SDS011;2862;52.560;13.566;2022-12-07T12:19:25;15.27;;;1.63;;
5678;SDS011;2862;52.560;13.566;2022-12-07T12:29:36;17.90;;;2.93;;
5678;SDS011;2862;52.560;13.566;2022-12-07T12:39:43;18.70;;;3.47;;
5678;SDS011;2862;52.560;13.566;2022-12-07T12:50:36;15.90;;;1.60;;
5678;SDS011;2862;52.560;13.566;2022-12-07T13:00:40;13.50;;;1.20;;
5678;SDS011;2862;52.560;13.566;2022-12-07T13:10:45;25.40;;;4.10;;
5678;SDS011;2862;52.560;13.566;2022-12-07T13:20:51;16.17;;;1.20;;
5678;SDS011;2862;52.560;13.566;2022-12-07T13:31:14;14.17;;;1.33;;
5678;SDS011;2862;52.560;13.566;2022-12-07T13:41:40;15.83;;;1.50;;
5678;SDS011;2862;52.560;13.566;2022-12-07T13:51:46;15.47;;;1.40;;
5678;SDS011;2862;52.560;13.566;2022-12-07T14:01:50;24.13;;;0.60;;
5678;SDS011;2862;52.560;13.566;2022-12-07T14:11:56;16.10;;;0.67;;
5678;SDS011;2862;52.560;13.566;2022-12-07T14:22:06;14.97;;;0.80;;
5678;SDS011;2862;52.560;13.566;2022-12-07T14:32:19;18.97;;;0.73;;
5678;SDS011;2862;52.560;13.566;2022-12-07T14:42:27;13.00;;;0.50;;
5678;SDS011;2862;52.560;13.566;2022-12-07T14:52:34;15.70;;;0.80;;
5678;SDS011;2862;52.560;13.566;2022-12-07T15:03:00;21.57;;;2.77;;
5678;SDS011;2862;52.560;13.566;2022-12-07T15:13:05;27.10;;;1.40;;
5678;SDS011;2862;52.560;13.566;2022-12-07T15:23:26;20.17;;;2.47;;
5678;SDS011;2862;52.560;13.566;2022-12-07T15:33:30;18.43;;;0.80;;
5678;SDS011;2862;52.560;13.566;2022-12-07T15:43:33;19.57;;;0.70;;
5678;SDS011;2862;52.560;13.566;2022-12-07T15:53:56;15.33;;;0.90;;
5678;SDS011;2862;52.560;13.566;2022-12-07T16:03:59;15.93;;;0.50;;
5678;SDS011;2862;52.560;13.566;2022-12-07T16:14:03;14.43;;;0.80;;
5678;SDS011;2862;52.560;13.566;2022-12-07T16:24:07;13.20;;;0.50;;
5678;SDS011;2862;52.560;13.566;2022-12-07T16:34:12;9.73;;;0.30;;
5678;SDS011;2862;52.560;13.566;2022-12-07T16:44:15;16.43;;;1.20;;
5678;SDS011;2862;52.560;13.566;2022-12-07T16:54:19;13.77;;;1.33;;
5678;SDS011;2862;52.560;13.566;2022-12-07T17:04:22;13.43;;;1.03;;
5678;SDS011;2862;52.560;13.566;2022-12-07T17:14:27;14.40;;;1.27;;
5678;SDS011;2862;52.560;13.566;2022-12-07T17:24:47;16.23;;;1.07;;
5678;SDS011;2862;52.560;13.566;2022-12-07T17:34:51;15.47;;;1.00;;
5678;SDS011;2862;52.560;13.566;2022-12-07T17:44:54;17.13;;;1.27;;
5678;SDS011;2862;52.560;13.566;2022-12-07T17:54:58;17.83;;;1.53;;
5678;SDS011;2862;52.560;13.566;2022-12-07T18:05:01;17.77;;;1.63;;
5678;SDS011;2862;52.560;13.566;2022-12-07T18:15:06;21.03;;;3.53;;
5678;SDS011;2862;52.560;13.566;2022-12-07T18:25:09;23.53;;;0.90;;
5678;SDS011;2862;52.560;13.566;2022-12-07T18:35:13;17.63;;;1.20;;
5678;SDS011;2862;52.560;13.566;2022-12-07T18:45:15;15.33;;;1.13;;
5678;SDS011;2862;52.560;13.566;2022-12-07T18:55:20;17.33;;;1.37;;
5678;SDS011;2862;52.560;13.566;2022-12-07T19:05:23;15.10;;;2.10;;
5678;SDS011;2862;52.560;13.566;2022-12-07T19:15:28;13.97;;;1.60;;
5678;SDS011;2862;52.560;13.566;2022-12-07T19:25:30;15.30;;;1.40;;
5678;SDS011;2862;52.560;13.566;2022-12-07T19:35:34;20.43;;;1.53;;
5678;SDS011;2862;52.560;13.566;2022-12-07T19:45:37;14.17;;;1.50;;
5678;SDS011;2862;52.560;13.566;2022-12-07T19:55:41;27.20;;;4.27;;
5678;SDS011;2862;52.560;13.566;2022-12-07T20:05:44;17.80;;;1.80;;
5678;SDS011;2862;52.560;13.566;2022-12-07T20:15:49;25.90;;;2.13;;
5678;SDS011;2862;52.560;13.566;2022-12-07T20:25:52;21.80;;;2.60;;
5678;SDS011;2862;52.560;13.566;2022-12-07T20:35:59;17.40;;;2.37;;
5678;SDS011;2862;52.560;13.566;2022-12-07T20:46:02;17.87;;;2.90;;
5678;SDS011;2862;52.560;13.566;2022-12-07T20:56:06;18.50;;;2.77;;
5678;SDS011;2862;52.560;13.566;2022-12-07T21:06:11;19.97;;;1.73;;
5678;SDS011;2862;52.560;13.566;2022-12-07T21:16:17;27.60;;;2.90;;
5678;SDS011;2862;52.560;13.566;2022-12-07T21:26:21;19.53;;;3.40;;
5678;SDS011;2862;52.560;13.566;2022-12-07T21:36:32;24.40;;;4.10;;
5678;SDS011;2862;52.560;13.566;2022-12-07T21:46:36;19.70;;;2.60;;
5678;SDS011;2862;52.560;13.566;2022-12-07T21:56:43;17.87;;;3.40;;
5678;SDS011;2862;52.560;13.566;2022-12-07T22:06:47;22.83;;;3.60;;
5678;SDS011;2862;52.560;13.566;2022-12-07T22:16:59;22.13;;;3.90;;
5678;SDS011;2862;52.560;13.566;2022-12-07T22:27:05;20.77;;;4.57;;
5678;SDS011;2862;52.560;13.566;2022-12-07T22:37:10;24.13;;;4.57;;
5678;SDS011;2862;52.560;13.566;2022-12-07T22:47:18;22.87;;;4.93;;
5678;SDS011;2862;52.560;13.566;2022-12-07T22:57:22;39.03;;;15.67;;
5678;SDS011;2862;52.560;13.566;2022-12-07T23:07:26;27.20;;;5.53;;
5678;SDS011;2862;52.560;13.566;2022-12-07T23:17:30;20.87;;;5.10;;
5678;SDS011;2862;52.560;13.566;2022-12-07T23:27:34;19.90;;;5.80;;
5678;SDS011;2862;52.560;13.566;2022-12-07T23:37:38;25.93;;;5.37;;
5678;SDS011;2862;52.560;13.566;2022-12-07T23:47:41;20.83;;;5.40;;
5678;SDS011;2862;52.560;13.566;2022-12-07T23:57:46;22.53;;;7.33;;
